Noyes, Minnesota
Current Conditions -  °F | °C
As of 1:35 PM on Thursday 18 Dec 2014 (Local Time) from KHCO Reporting Station
Clear Clear  
Wind Chill:   Ceiling: Unl
Heat Index: 19°   Visibility: 10mi
Dew Point: 16°   Wind: 15mph
Humidity: 86%   Direction: 160°SSE
Pressure: 30.19"   Gusts: NA
Location:  49°N, 97.21°W
Report Text: KHCO 181935Z AUTO 16013KT 10SM CLR M07/M09 A3019 RMK AO2
Loading
Personal Weather Stations






























Interactive Weather Map New forecast layout! Learn more

10-Day Weather Forecast

Advertisements
Track Severe Weather on mobile